Weather at Cortland County Chase Field

Public forecast

Using degrees Fahrenheit for public forecast. Weather courtesy of forecast.io.

Current aviation weather report (METAR) for Cortland County Chase Field

Retrieved 2021/04/12 12:35 UTC (12 minutes ago):

KN03 121235Z AUTO 09004KT 10SM BKN017 OVC026 08/05 A2970 RMK AO2

Closest aviation forecast (TAF) to Cortland County Chase Field

Closest forecast is Ithaca Tompkins Regional Airport, 12.4 nm (22.9 km) WSW. Retrieved 2021/04/12 12:36 UTC (11 minutes ago):

TAF KITH 121132Z 1212/1312 10008KT P6SM VCSH OVC012 TEMPO 1212/1215 5SM -SHRA OVC008 FM121500 13010G16KT 4SM -SHRA BR OVC010 FM130300 15006KT P6SM OVC012